createdAt,value
2018-07-06T00:02:12.286Z,12.63
2018-07-06T00:05:27.490Z,13.70
2018-07-06T00:08:42.853Z,12.83
2018-07-06T00:11:57.079Z,16.57
2018-07-06T00:15:12.425Z,15.00
2018-07-06T00:18:26.615Z,15.63
2018-07-06T00:21:42.062Z,15.07
2018-07-06T00:24:56.364Z,15.67
2018-07-06T00:28:12.644Z,15.23
2018-07-06T00:31:26.954Z,16.60
2018-07-06T00:34:42.213Z,17.07
2018-07-06T00:37:57.484Z,15.87
2018-07-06T00:41:15.355Z,20.30
2018-07-06T00:44:33.144Z,21.40
2018-07-06T00:47:48.493Z,19.73
2018-07-06T00:51:04.926Z,21.10
2018-07-06T00:54:19.331Z,19.17
2018-07-06T00:57:39.110Z,15.47
2018-07-06T01:01:03.911Z,19.23
2018-07-06T01:04:23.898Z,18.10
2018-07-06T01:07:39.221Z,19.63
2018-07-06T01:10:54.493Z,20.30
2018-07-06T01:14:10.896Z,18.37
2018-07-06T01:17:31.080Z,17.33
2018-07-06T01:20:45.480Z,17.97
2018-07-06T01:24:01.803Z,22.40
2018-07-06T01:27:17.132Z,18.40
2018-07-06T01:30:31.294Z,18.83
2018-07-06T01:33:46.614Z,19.07
2018-07-06T01:37:00.849Z,22.20
2018-07-06T01:40:15.042Z,18.47
2018-07-06T01:43:29.329Z,17.47
2018-07-06T01:46:50.400Z,17.77
2018-07-06T01:50:04.812Z,18.57
2018-07-06T01:53:19.134Z,19.43
2018-07-06T01:56:33.308Z,20.43
2018-07-06T01:59:48.585Z,19.37
2018-07-06T02:03:02.850Z,17.60
2018-07-06T02:06:17.022Z,21.47
2018-07-06T02:09:31.246Z,19.60
2018-07-06T02:12:45.501Z,21.17
2018-07-06T02:15:59.813Z,22.73
2018-07-06T02:19:14.284Z,20.53
2018-07-06T02:22:28.583Z,20.73
2018-07-06T02:25:43.951Z,19.73
2018-07-06T02:28:58.234Z,19.93
2018-07-06T02:32:12.425Z,19.47
2018-07-06T02:35:26.773Z,21.13
2018-07-06T02:38:41.177Z,19.37
2018-07-06T02:41:55.468Z,20.97
2018-07-06T02:45:15.517Z,20.73
2018-07-06T02:48:36.686Z,20.30
2018-07-06T02:51:50.873Z,17.70
2018-07-06T02:55:05.138Z,20.30
2018-07-06T02:58:19.587Z,22.03
2018-07-06T03:01:33.995Z,21.13
2018-07-06T03:04:48.263Z,19.00
2018-07-06T03:08:08.373Z,20.33
2018-07-06T03:11:22.666Z,22.17
2018-07-06T03:14:36.996Z,20.00
2018-07-06T03:17:52.258Z,18.90
2018-07-06T03:21:06.547Z,18.70
2018-07-06T03:24:20.848Z,18.37
2018-07-06T03:27:35.212Z,19.57
2018-07-06T03:30:49.617Z,18.83
2018-07-06T03:34:03.924Z,18.17
2018-07-06T03:37:18.257Z,18.30
2018-07-06T03:40:32.428Z,18.03
2018-07-06T03:43:46.618Z,19.60
2018-07-06T03:47:00.861Z,19.30
2018-07-06T03:50:15.185Z,24.37
2018-07-06T03:53:29.451Z,22.80
2018-07-06T03:56:43.649Z,20.70
2018-07-06T03:59:57.945Z,19.27
2018-07-06T04:03:12.298Z,19.97
2018-07-06T04:06:26.615Z,19.70
2018-07-06T04:09:40.930Z,17.97
2018-07-06T04:12:55.406Z,16.93
2018-07-06T04:16:09.756Z,16.50
2018-07-06T04:19:23.941Z,15.30
2018-07-06T04:22:38.097Z,14.07
2018-07-06T04:25:52.292Z,15.40
2018-07-06T04:29:06.610Z,15.37
2018-07-06T04:32:21.019Z,14.60
2018-07-06T04:35:40.969Z,15.10
2018-07-06T04:38:55.244Z,13.77
2018-07-06T04:42:09.550Z,14.40
2018-07-06T04:45:24.917Z,13.63
2018-07-06T04:48:39.329Z,11.90
2018-07-06T04:51:53.770Z,10.03
2018-07-06T04:55:08.133Z,9.47
2018-07-06T04:58:22.420Z,8.70
2018-07-06T05:01:36.901Z,8.83
2018-07-06T05:04:51.060Z,8.27
2018-07-06T05:08:05.310Z,9.10
2018-07-06T05:11:19.505Z,8.33
2018-07-06T05:14:33.799Z,8.13
2018-07-06T05:17:48.073Z,7.60
2018-07-06T05:21:02.279Z,7.30
2018-07-06T05:24:16.706Z,7.30
2018-07-06T05:27:31.049Z,6.40
2018-07-06T05:30:45.226Z,7.53
2018-07-06T05:33:59.461Z,6.50
2018-07-06T05:37:14.717Z,5.67
2018-07-06T05:40:28.925Z,6.50
2018-07-06T05:43:48.861Z,6.17
2018-07-06T05:47:03.196Z,6.73
2018-07-06T05:50:17.518Z,6.20
2018-07-06T05:53:31.719Z,5.30
2018-07-06T05:56:46.146Z,5.70
2018-07-06T06:00:00.349Z,5.13
2018-07-06T06:03:14.800Z,4.57
2018-07-06T06:06:28.987Z,5.27
2018-07-06T06:09:32.015Z,5.40
2018-07-06T06:12:35.045Z,4.70
2018-07-06T06:15:38.148Z,4.90
2018-07-06T06:18:41.261Z,5.17
2018-07-06T06:21:44.187Z,4.10
2018-07-06T06:24:47.205Z,5.20
2018-07-06T06:27:50.193Z,4.77
2018-07-06T06:30:53.312Z,4.63
2018-07-06T06:33:57.910Z,4.47
2018-07-06T06:37:01.188Z,4.47
2018-07-06T06:40:04.201Z,5.33
2018-07-06T06:43:07.191Z,5.47
2018-07-06T06:46:10.220Z,5.57
2018-07-06T06:49:13.294Z,5.33
2018-07-06T06:52:16.646Z,5.40
2018-07-06T06:55:19.607Z,5.97
2018-07-06T06:58:22.642Z,5.20
2018-07-06T07:01:25.741Z,4.83
2018-07-06T07:04:28.798Z,5.20
2018-07-06T07:07:32.005Z,5.10
2018-07-06T07:10:35.000Z,4.77
2018-07-06T07:13:38.234Z,4.23
2018-07-06T07:16:41.327Z,4.03
2018-07-06T07:19:44.345Z,4.43
2018-07-06T07:22:47.387Z,4.07
2018-07-06T07:25:50.424Z,4.47
2018-07-06T07:28:53.384Z,3.97
2018-07-06T07:31:56.429Z,3.63
2018-07-06T07:34:59.435Z,4.00
2018-07-06T07:38:02.470Z,3.73
2018-07-06T07:41:05.562Z,3.90
2018-07-06T07:44:08.550Z,4.37
2018-07-06T07:47:11.729Z,3.93
2018-07-06T07:50:14.770Z,3.40
2018-07-06T07:54:33.966Z,3.40
2018-07-06T07:57:36.944Z,2.97
2018-07-06T08:00:40.093Z,2.93
2018-07-06T08:03:43.054Z,2.73
2018-07-06T08:06:46.099Z,2.50
2018-07-06T08:09:49.219Z,2.57
2018-07-06T08:12:52.173Z,2.80
2018-07-06T08:15:55.145Z,3.10
2018-07-06T08:18:58.149Z,2.97
2018-07-06T08:22:01.168Z,2.80
2018-07-06T08:25:04.262Z,2.50
2018-07-06T08:28:07.311Z,2.50
2018-07-06T08:31:10.312Z,3.20
2018-07-06T08:34:25.342Z,2.30
2018-07-06T08:37:41.020Z,2.20
2018-07-06T08:40:44.050Z,2.10
2018-07-06T08:43:46.998Z,2.70
2018-07-06T08:46:50.013Z,2.60
2018-07-06T08:49:53.828Z,2.80
2018-07-06T08:52:57.245Z,2.87
2018-07-06T08:56:00.245Z,2.80
2018-07-06T08:59:03.333Z,3.20
2018-07-06T09:02:06.460Z,2.63
2018-07-06T09:05:10.382Z,2.83
2018-07-06T09:08:13.438Z,2.67
2018-07-06T09:11:16.592Z,2.87
2018-07-06T09:14:19.560Z,3.20
2018-07-06T09:17:22.879Z,2.70
2018-07-06T09:20:25.908Z,3.43
2018-07-06T09:23:29.000Z,3.00
2018-07-06T09:26:32.079Z,3.37
2018-07-06T09:29:35.244Z,3.33
2018-07-06T09:32:38.258Z,4.00
2018-07-06T09:35:41.337Z,3.13
2018-07-06T09:38:44.321Z,3.50
2018-07-06T09:41:47.305Z,3.27
2018-07-06T09:44:50.300Z,3.30
2018-07-06T09:47:53.476Z,3.83
2018-07-06T09:50:56.325Z,3.37
2018-07-06T09:53:59.489Z,4.13
2018-07-06T09:57:02.589Z,3.70
2018-07-06T10:00:05.673Z,3.83
2018-07-06T10:03:08.740Z,3.70
2018-07-06T10:06:11.750Z,4.97
2018-07-06T10:09:15.082Z,5.03
2018-07-06T10:12:18.144Z,4.80
2018-07-06T10:15:21.153Z,5.10
2018-07-06T10:18:24.190Z,6.00
2018-07-06T10:21:27.550Z,5.33
2018-07-06T10:24:30.618Z,4.60
2018-07-06T10:27:43.913Z,4.17
2018-07-06T10:31:15.161Z,4.63
2018-07-06T10:34:18.328Z,4.37
2018-07-06T10:37:21.649Z,5.30
2018-07-06T10:40:24.671Z,4.67
2018-07-06T10:43:27.716Z,5.23
2018-07-06T10:46:30.723Z,4.87
2018-07-06T10:49:33.852Z,5.07
2018-07-06T10:52:36.881Z,5.03
2018-07-06T10:55:39.860Z,5.07
2018-07-06T10:58:42.879Z,6.00
2018-07-06T11:01:47.200Z,5.30
2018-07-06T11:04:50.143Z,7.33
2018-07-06T11:07:53.144Z,7.43
2018-07-06T11:10:56.182Z,7.87
2018-07-06T11:13:59.112Z,7.90
2018-07-06T11:17:02.209Z,7.40
2018-07-06T11:20:05.315Z,7.13
2018-07-06T11:23:11.298Z,7.27
2018-07-06T11:26:14.453Z,7.30
2018-07-06T11:29:21.046Z,7.60
2018-07-06T11:32:24.305Z,7.33
2018-07-06T11:35:27.400Z,7.70
2018-07-06T11:38:30.360Z,8.03
2018-07-06T11:41:33.627Z,8.43
2018-07-06T11:44:36.595Z,9.07
2018-07-06T11:47:39.633Z,9.63
2018-07-06T11:50:42.796Z,10.77
2018-07-06T11:53:45.818Z,8.83
2018-07-06T11:56:48.814Z,8.97
2018-07-06T11:59:51.939Z,7.70
2018-07-06T12:02:55.037Z,8.80
2018-07-06T12:05:58.121Z,9.70
2018-07-06T12:09:01.170Z,10.43
2018-07-06T12:12:04.281Z,8.27
2018-07-06T12:15:07.268Z,8.07
2018-07-06T12:18:10.361Z,7.70
2018-07-06T12:21:13.527Z,7.83
2018-07-06T12:24:16.586Z,7.50
2018-07-06T12:27:19.545Z,7.20
2018-07-06T12:30:22.658Z,5.40
2018-07-06T12:33:25.709Z,8.00
2018-07-06T12:36:29.794Z,7.50
2018-07-06T12:39:32.808Z,6.90
2018-07-06T12:42:35.922Z,7.00
2018-07-06T12:45:38.957Z,6.77
2018-07-06T12:48:41.985Z,3.60
2018-07-06T12:51:45.066Z,6.47
2018-07-06T12:54:48.344Z,3.23
2018-07-06T12:57:51.442Z,3.20
2018-07-06T13:00:54.554Z,3.73
2018-07-06T13:03:57.567Z,3.53
2018-07-06T13:07:00.627Z,3.70
2018-07-06T13:10:04.067Z,5.23
2018-07-06T13:13:07.270Z,3.50
2018-07-06T13:16:10.400Z,3.40
2018-07-06T13:19:13.506Z,4.00
2018-07-06T13:22:16.614Z,4.20
2018-07-06T13:25:19.706Z,3.00
2018-07-06T13:28:22.766Z,3.13
2018-07-06T13:31:25.790Z,3.30
2018-07-06T13:34:29.756Z,2.33
2018-07-06T13:37:32.713Z,3.10
2018-07-06T13:40:35.816Z,3.50
2018-07-06T13:43:38.821Z,3.90
2018-07-06T13:46:41.842Z,3.83
2018-07-06T13:49:44.834Z,3.83
2018-07-06T13:52:47.882Z,3.73
2018-07-06T13:55:51.068Z,4.43
2018-07-06T13:58:54.156Z,3.83
2018-07-06T14:01:57.201Z,3.80
2018-07-06T14:05:00.290Z,4.53
2018-07-06T14:08:03.794Z,3.53
2018-07-06T14:11:06.776Z,3.47
2018-07-06T14:14:09.861Z,3.47
2018-07-06T14:17:12.976Z,3.37
2018-07-06T14:20:16.040Z,3.30
2018-07-06T14:23:18.996Z,3.13
2018-07-06T14:26:22.178Z,2.63
2018-07-06T14:29:25.281Z,3.30
2018-07-06T14:32:28.358Z,3.20
2018-07-06T14:35:31.421Z,3.30
2018-07-06T14:38:34.397Z,3.60
2018-07-06T14:41:37.686Z,3.47
2018-07-06T14:44:40.636Z,3.63
2018-07-06T14:47:43.704Z,4.00
2018-07-06T14:50:46.737Z,3.83
2018-07-06T14:53:49.749Z,4.30
2018-07-06T14:56:52.885Z,3.03
2018-07-06T14:59:55.924Z,3.67
2018-07-06T15:02:59.086Z,3.80
2018-07-06T15:06:02.084Z,4.43
2018-07-06T15:09:05.885Z,5.27
2018-07-06T15:12:08.885Z,5.43
2018-07-06T15:15:11.912Z,5.20
2018-07-06T15:18:14.994Z,5.20
2018-07-06T15:21:17.933Z,5.23
2018-07-06T15:24:20.910Z,5.73
2018-07-06T15:27:23.880Z,4.60
2018-07-06T15:30:26.936Z,3.87
2018-07-06T15:33:30.068Z,4.67
2018-07-06T15:36:33.073Z,4.33
2018-07-06T15:39:36.102Z,3.77
2018-07-06T15:42:39.094Z,4.07
2018-07-06T15:45:42.286Z,4.57
2018-07-06T15:48:45.353Z,4.33
2018-07-06T15:51:48.329Z,3.97
2018-07-06T15:54:51.373Z,3.50
2018-07-06T15:57:54.414Z,4.37
2018-07-06T16:00:57.388Z,3.77
2018-07-06T16:04:00.411Z,3.93
2018-07-06T16:07:03.379Z,3.80
2018-07-06T16:10:06.400Z,3.80
2018-07-06T16:13:09.381Z,3.63
2018-07-06T16:16:12.353Z,3.80
2018-07-06T16:19:15.327Z,4.27
2018-07-06T16:22:18.305Z,4.10
2018-07-06T16:25:22.010Z,4.10
2018-07-06T16:28:25.050Z,4.30
2018-07-06T16:31:28.222Z,4.90
2018-07-06T16:34:31.169Z,5.13
2018-07-06T16:37:34.478Z,4.73
2018-07-06T16:40:37.673Z,4.93
2018-07-06T16:43:40.773Z,5.03
2018-07-06T16:46:43.865Z,5.00
2018-07-06T16:49:46.916Z,4.77
2018-07-06T16:52:49.890Z,4.80
2018-07-06T16:55:52.888Z,5.07
2018-07-06T16:58:55.850Z,5.10
2018-07-06T17:01:58.895Z,5.73
2018-07-06T17:05:02.075Z,5.67
2018-07-06T17:08:05.184Z,5.60
2018-07-06T17:11:08.377Z,5.87
2018-07-06T17:14:11.426Z,5.47
2018-07-06T17:17:14.441Z,5.77
2018-07-06T17:20:17.496Z,5.40
2018-07-06T17:23:20.529Z,5.63
2018-07-06T17:26:23.628Z,5.10
2018-07-06T17:29:26.656Z,5.50
2018-07-06T17:32:29.739Z,5.50
2018-07-06T17:35:32.746Z,5.27
2018-07-06T17:38:35.760Z,4.97
2018-07-06T17:41:38.874Z,5.30
2018-07-06T17:44:41.918Z,5.10
2018-07-06T17:47:45.119Z,4.53
2018-07-06T17:50:48.108Z,4.87
2018-07-06T17:53:51.109Z,5.67
2018-07-06T17:56:54.299Z,5.67
2018-07-06T17:59:57.422Z,7.90
2018-07-06T18:03:00.505Z,6.60
2018-07-06T18:06:03.473Z,6.97
2018-07-06T18:09:06.610Z,7.90
2018-07-06T18:12:09.641Z,6.57
2018-07-06T18:15:13.811Z,7.20
2018-07-06T18:18:16.975Z,7.47
2018-07-06T18:21:20.135Z,7.07
2018-07-06T18:24:23.287Z,7.97
2018-07-06T18:27:26.349Z,10.23
2018-07-06T18:30:29.353Z,7.93
2018-07-06T18:33:32.401Z,7.67
2018-07-06T18:36:35.474Z,6.93
2018-07-06T18:39:38.440Z,7.33
2018-07-06T18:42:41.485Z,6.77
2018-07-06T18:45:44.458Z,6.00
2018-07-06T18:48:47.448Z,6.77
2018-07-06T18:51:50.451Z,5.87
2018-07-06T18:54:53.570Z,6.03
2018-07-06T18:57:56.540Z,6.27
2018-07-06T19:00:59.638Z,6.03
2018-07-06T19:04:02.811Z,6.63
2018-07-06T19:07:05.819Z,5.80
2018-07-06T19:10:08.943Z,6.90
2018-07-06T19:13:11.957Z,7.10
2018-07-06T19:16:14.949Z,6.37
2018-07-06T19:19:17.936Z,6.70
2018-07-06T19:22:20.924Z,6.70
2018-07-06T19:25:23.885Z,6.83
2018-07-06T19:28:26.857Z,6.43
2018-07-06T19:31:29.897Z,7.10
2018-07-06T19:34:34.037Z,6.63
2018-07-06T19:37:36.972Z,7.27
2018-07-06T19:40:39.930Z,6.70
2018-07-06T19:43:42.974Z,6.77
2018-07-06T19:46:45.970Z,6.73
2018-07-06T19:49:48.986Z,6.63
2018-07-06T19:52:51.979Z,6.67
2018-07-06T19:55:55.090Z,6.90
2018-07-06T19:58:58.027Z,6.57
2018-07-06T20:02:01.006Z,6.93
2018-07-06T20:05:04.022Z,7.40
2018-07-06T20:08:07.003Z,7.67
2018-07-06T20:11:09.992Z,8.03
2018-07-06T20:14:13.070Z,7.63
2018-07-06T20:17:16.099Z,7.73
2018-07-06T20:20:19.181Z,7.83
2018-07-06T20:23:22.433Z,8.03
2018-07-06T20:26:25.498Z,8.13
2018-07-06T20:29:28.477Z,8.23
2018-07-06T20:32:31.582Z,8.53
2018-07-06T20:35:34.561Z,8.80
2018-07-06T20:38:37.699Z,8.50
2018-07-06T20:41:40.718Z,8.77
2018-07-06T20:44:43.785Z,8.77
2018-07-06T20:47:46.811Z,9.13
2018-07-06T20:50:49.892Z,8.53
2018-07-06T20:53:53.111Z,8.20
2018-07-06T20:56:56.656Z,8.53
2018-07-06T20:59:59.715Z,8.27
2018-07-06T21:03:02.778Z,7.80
2018-07-06T21:06:05.830Z,7.20
2018-07-06T21:09:09.697Z,8.10
2018-07-06T21:12:12.715Z,7.97
2018-07-06T21:15:15.773Z,8.47
2018-07-06T21:18:18.758Z,7.73
2018-07-06T21:21:21.875Z,7.47
2018-07-06T21:24:25.903Z,8.20
2018-07-06T21:27:29.963Z,8.37
2018-07-06T21:30:33.072Z,7.73
2018-07-06T21:33:36.237Z,8.73
2018-07-06T21:36:39.309Z,8.00
2018-07-06T21:39:42.289Z,7.47
2018-07-06T21:42:51.826Z,7.43
2018-07-06T21:45:55.900Z,7.73
2018-07-06T21:49:00.099Z,8.07
2018-07-06T21:52:03.865Z,7.60
2018-07-06T21:55:07.935Z,6.93
2018-07-06T21:58:10.914Z,7.07
2018-07-06T22:01:14.934Z,7.73
2018-07-06T22:04:18.917Z,7.33
2018-07-06T22:07:27.830Z,7.07
2018-07-06T22:10:31.117Z,7.37
2018-07-06T22:13:35.205Z,7.20
2018-07-06T22:16:39.281Z,6.77
2018-07-06T22:19:42.336Z,7.17
2018-07-06T22:22:45.307Z,7.23
2018-07-06T22:25:48.270Z,7.83
2018-07-06T22:28:54.382Z,6.83
2018-07-06T22:32:01.167Z,6.70
2018-07-06T22:35:05.218Z,6.53
2018-07-06T22:38:09.191Z,7.20
2018-07-06T22:41:12.177Z,7.13
2018-07-06T22:44:16.258Z,7.37
2018-07-06T22:47:21.224Z,7.63
2018-07-06T22:50:26.266Z,7.70
2018-07-06T22:53:31.299Z,7.30
2018-07-06T22:56:34.283Z,8.00
2018-07-06T22:59:37.217Z,7.60
2018-07-06T23:02:41.175Z,8.00
2018-07-06T23:05:45.240Z,7.87
2018-07-06T23:08:49.215Z,8.13
2018-07-06T23:11:54.267Z,7.17
2018-07-06T23:14:58.323Z,7.50
2018-07-06T23:18:01.388Z,6.90
2018-07-06T23:21:04.495Z,7.47
2018-07-06T23:24:08.958Z,7.30
2018-07-06T23:27:13.001Z,7.33
2018-07-06T23:30:17.041Z,6.97
2018-07-06T23:33:20.064Z,6.57
2018-07-06T23:36:23.145Z,7.00
2018-07-06T23:39:26.123Z,6.37
2018-07-06T23:42:29.078Z,6.47
2018-07-06T23:45:32.101Z,6.53
2018-07-06T23:48:35.153Z,6.63
2018-07-06T23:51:38.152Z,6.67
2018-07-06T23:54:41.253Z,6.97
2018-07-06T23:57:45.787Z,6.07
